createdAt,value
2023-05-08T00:00:56.867Z,31.76
2023-05-08T00:01:56.864Z,31.76
2023-05-08T00:02:57.042Z,31.77
2023-05-08T00:03:56.975Z,31.74
2023-05-08T00:04:56.979Z,31.75
2023-05-08T00:05:56.893Z,31.74
2023-05-08T00:06:56.899Z,31.75
2023-05-08T00:07:56.911Z,31.74
2023-05-08T00:08:56.862Z,31.76
2023-05-08T00:09:56.879Z,31.75
2023-05-08T00:10:56.866Z,31.74
2023-05-08T00:11:56.895Z,31.75
2023-05-08T00:12:56.915Z,31.74
2023-05-08T00:13:56.847Z,31.74
2023-05-08T00:14:56.855Z,31.75
2023-05-08T00:15:56.851Z,31.74
2023-05-08T00:16:56.966Z,31.73
2023-05-08T00:17:56.907Z,31.72
2023-05-08T00:18:56.876Z,31.75
2023-05-08T00:19:56.883Z,31.75
2023-05-08T00:20:56.894Z,31.75
2023-05-08T00:21:56.849Z,31.74
2023-05-08T00:22:56.849Z,31.74
2023-05-08T00:23:56.872Z,31.76
2023-05-08T00:24:56.861Z,31.77
2023-05-08T00:25:56.872Z,31.76
2023-05-08T00:26:56.880Z,31.75
2023-05-08T00:27:56.841Z,31.76
2023-05-08T00:28:56.849Z,31.75
2023-05-08T00:29:56.848Z,31.76
2023-05-08T00:30:56.860Z,31.73
2023-05-08T00:31:56.896Z,31.76
2023-05-08T00:32:56.958Z,31.74
2023-05-08T00:33:56.819Z,31.73
2023-05-08T00:34:56.851Z,31.75
2023-05-08T00:35:56.830Z,31.77
2023-05-08T00:36:56.837Z,31.75
2023-05-08T00:37:56.859Z,31.77
2023-05-08T00:38:56.864Z,31.76
2023-05-08T00:39:56.859Z,31.76
2023-05-08T00:40:56.821Z,31.77
2023-05-08T00:41:56.833Z,31.74
2023-05-08T00:42:56.840Z,31.78
2023-05-08T00:43:56.845Z,31.78
2023-05-08T00:44:56.853Z,31.76
2023-05-08T00:45:56.895Z,31.78
2023-05-08T00:46:56.875Z,31.77
2023-05-08T00:47:56.855Z,31.77
2023-05-08T00:48:56.816Z,31.78
2023-05-08T00:49:56.830Z,31.79
2023-05-08T00:50:56.837Z,31.78
2023-05-08T00:51:56.902Z,31.77
2023-05-08T00:52:56.860Z,31.78
2023-05-08T00:53:56.861Z,31.78
2023-05-08T00:54:56.857Z,31.80
2023-05-08T00:55:56.819Z,31.80
2023-05-08T00:56:56.835Z,31.78
2023-05-08T00:57:56.837Z,31.80
2023-05-08T00:58:56.856Z,31.79
2023-05-08T00:59:56.851Z,31.82
2023-05-08T01:00:56.867Z,31.81
2023-05-08T01:01:56.950Z,31.80
2023-05-08T01:02:56.948Z,31.79
2023-05-08T01:03:56.934Z,31.80
2023-05-08T01:04:56.831Z,31.81
2023-05-08T01:05:56.905Z,31.80
2023-05-08T01:06:57.417Z,31.81
2023-05-08T01:07:56.917Z,31.79
2023-05-08T01:08:56.921Z,31.81
2023-05-08T01:09:56.864Z,31.81
2023-05-08T01:10:56.923Z,31.81
2023-05-08T01:11:56.966Z,31.84
2023-05-08T01:12:56.962Z,31.82
2023-05-08T01:13:56.916Z,31.81
2023-05-08T01:14:56.908Z,31.81
2023-05-08T01:15:56.959Z,31.83
2023-05-08T01:16:56.940Z,31.82
2023-05-08T01:17:57.018Z,31.81
2023-05-08T01:18:57.012Z,31.83
2023-05-08T01:19:56.998Z,31.83
2023-05-08T01:20:56.996Z,31.82
2023-05-08T01:21:57.009Z,31.84
2023-05-08T01:22:57.007Z,31.82
2023-05-08T01:23:57.027Z,31.82
2023-05-08T01:24:57.028Z,31.84
2023-05-08T01:25:57.034Z,31.83
2023-05-08T01:26:57.038Z,31.86
2023-05-08T01:27:57.057Z,31.84
2023-05-08T01:28:57.050Z,31.82
2023-05-08T01:29:57.079Z,31.83
2023-05-08T01:30:57.084Z,31.84
2023-05-08T01:31:57.085Z,31.86
2023-05-08T01:32:57.256Z,31.84
2023-05-08T01:33:57.137Z,31.85
2023-05-08T01:34:57.102Z,31.84
2023-05-08T01:35:57.119Z,31.85
2023-05-08T01:36:57.112Z,31.86
2023-05-08T01:37:57.190Z,31.86
2023-05-08T01:38:57.175Z,31.85
2023-05-08T01:39:57.174Z,31.87
2023-05-08T01:40:57.198Z,31.86
2023-05-08T01:41:57.254Z,31.86
2023-05-08T01:42:57.200Z,31.88
2023-05-08T01:43:57.198Z,31.86
2023-05-08T01:44:57.207Z,31.86
2023-05-08T01:45:57.218Z,31.84
2023-05-08T01:46:57.280Z,31.86
2023-05-08T01:47:57.236Z,31.86
2023-05-08T01:48:57.308Z,31.86
2023-05-08T01:49:57.252Z,31.85
2023-05-08T01:50:57.249Z,31.86
2023-05-08T01:51:57.315Z,31.85
2023-05-08T01:52:57.322Z,31.85
2023-05-08T01:53:57.323Z,31.86
2023-05-08T01:54:57.357Z,31.86
2023-05-08T01:55:57.349Z,31.85
2023-05-08T01:56:57.353Z,31.86
2023-05-08T01:57:57.356Z,31.86
2023-05-08T01:58:57.334Z,31.88
2023-05-08T01:59:57.382Z,31.88
2023-05-08T02:00:57.351Z,31.88
2023-05-08T02:01:57.439Z,31.88
2023-05-08T02:02:57.481Z,31.88
2023-05-08T02:03:57.416Z,31.87
2023-05-08T02:04:57.407Z,31.89
2023-05-08T02:05:57.430Z,31.87
2023-05-08T02:06:57.425Z,31.87
2023-05-08T02:07:57.449Z,31.86
2023-05-08T02:08:57.485Z,31.87
2023-05-08T02:09:57.433Z,31.90
2023-05-08T02:10:57.492Z,31.87
2023-05-08T02:11:57.977Z,31.87
2023-05-08T02:12:57.554Z,31.89
2023-05-08T02:13:57.515Z,31.90
2023-05-08T02:14:57.568Z,31.87
2023-05-08T02:15:57.528Z,31.88
2023-05-08T02:16:57.724Z,31.91
2023-05-08T02:17:57.557Z,31.89
2023-05-08T02:18:57.553Z,31.92
2023-05-08T02:19:57.555Z,31.92
2023-05-08T02:20:57.568Z,31.92
2023-05-08T02:21:57.583Z,31.92
2023-05-08T02:22:57.579Z,31.92
2023-05-08T02:23:57.579Z,31.93
2023-05-08T02:24:57.647Z,31.90
2023-05-08T02:25:57.654Z,31.90
2023-05-08T02:26:57.660Z,31.93
2023-05-08T02:27:57.672Z,31.94
2023-05-08T02:28:57.663Z,31.93
2023-05-08T02:29:57.701Z,31.92
2023-05-08T02:30:57.686Z,31.94
2023-05-08T02:31:57.741Z,31.93
2023-05-08T02:32:59.732Z,31.93
2023-05-08T02:33:57.708Z,31.93
2023-05-08T02:35:03.196Z,31.94
2023-05-08T02:35:58.684Z,31.94
2023-05-08T02:36:57.774Z,31.94
2023-05-08T02:37:57.680Z,31.95
2023-05-08T02:38:57.680Z,31.93
2023-05-08T02:39:57.712Z,31.93
2023-05-08T02:40:57.691Z,31.95
2023-05-08T02:41:57.761Z,31.95
2023-05-08T02:42:57.676Z,31.95
2023-05-08T02:43:57.678Z,31.97
2023-05-08T02:44:57.632Z,31.96
2023-05-08T02:45:57.654Z,31.93
2023-05-08T02:46:57.653Z,31.97
2023-05-08T02:47:57.699Z,31.95
2023-05-08T02:48:57.598Z,31.94
2023-05-08T02:49:57.600Z,31.98
2023-05-08T02:50:57.608Z,31.95
2023-05-08T02:51:57.629Z,31.95
2023-05-08T02:52:57.628Z,31.98
2023-05-08T02:53:57.575Z,31.97
2023-05-08T02:54:57.582Z,31.97
2023-05-08T02:55:57.592Z,31.97
2023-05-08T02:56:57.600Z,31.99
2023-05-08T02:57:57.658Z,31.97
2023-05-08T02:58:57.686Z,31.98
2023-05-08T02:59:57.670Z,31.99
2023-05-08T03:00:57.731Z,31.99
2023-05-08T03:01:57.804Z,31.99
2023-05-08T03:02:57.880Z,32.01
2023-05-08T03:03:57.916Z,32.00
2023-05-08T03:04:57.856Z,32.01
2023-05-08T03:05:57.894Z,31.99
2023-05-08T03:06:57.882Z,32.00
2023-05-08T03:07:57.931Z,32.00
2023-05-08T03:08:57.941Z,32.01
2023-05-08T03:09:57.953Z,31.99
2023-05-08T03:10:58.001Z,32.00
2023-05-08T03:11:58.105Z,32.00
2023-05-08T03:12:58.106Z,31.99
2023-05-08T03:13:58.074Z,31.99
2023-05-08T03:14:58.086Z,32.00
2023-05-08T03:15:58.157Z,32.01
2023-05-08T03:16:58.138Z,31.98
2023-05-08T03:17:58.218Z,32.00
2023-05-08T03:18:58.213Z,31.99
2023-05-08T03:19:58.233Z,31.99
2023-05-08T03:20:58.223Z,31.99
2023-05-08T03:21:58.245Z,31.98
2023-05-08T03:22:58.282Z,31.99
2023-05-08T03:23:58.361Z,32.00
2023-05-08T03:24:58.352Z,32.01
2023-05-08T03:25:58.464Z,32.03
2023-05-08T03:26:58.513Z,32.02
2023-05-08T03:27:58.528Z,32.01
2023-05-08T03:28:58.536Z,32.03
2023-05-08T03:29:58.597Z,32.01
2023-05-08T03:30:58.668Z,32.02
2023-05-08T03:31:58.672Z,32.05
2023-05-08T03:32:58.694Z,32.03
2023-05-08T03:33:58.722Z,32.02
2023-05-08T03:34:58.839Z,32.03
2023-05-08T03:35:58.739Z,32.03
2023-05-08T03:36:58.789Z,32.05
2023-05-08T03:37:58.800Z,32.03
2023-05-08T03:38:58.954Z,32.02
2023-05-08T03:39:58.869Z,32.04
2023-05-08T03:40:58.877Z,32.05
2023-05-08T03:41:58.934Z,32.03
2023-05-08T03:42:58.941Z,32.05
2023-05-08T03:43:59.012Z,32.04
2023-05-08T03:44:58.997Z,32.02
2023-05-08T03:45:59.053Z,32.06
2023-05-08T03:46:59.119Z,32.04
2023-05-08T03:47:59.190Z,32.06
2023-05-08T03:48:59.145Z,32.05
2023-05-08T03:49:59.186Z,32.06
2023-05-08T03:50:59.200Z,32.06
2023-05-08T03:51:59.251Z,32.08
2023-05-08T03:52:59.279Z,32.05
2023-05-08T03:53:59.270Z,32.06
2023-05-08T03:54:59.361Z,32.06
2023-05-08T03:55:59.394Z,32.07
2023-05-08T03:56:59.406Z,32.06
2023-05-08T03:57:59.461Z,32.07
2023-05-08T03:58:59.566Z,32.09
2023-05-08T03:59:59.522Z,32.08
2023-05-08T04:00:59.529Z,32.10
2023-05-08T04:01:59.647Z,32.09
2023-05-08T04:02:59.678Z,32.09
2023-05-08T04:03:59.726Z,32.09
2023-05-08T04:04:59.666Z,32.09
2023-05-08T04:05:59.708Z,32.10
2023-05-08T04:06:59.795Z,32.11
2023-05-08T04:07:59.788Z,32.08
2023-05-08T04:08:59.797Z,32.07
2023-05-08T04:09:59.962Z,32.08
2023-05-08T04:10:59.915Z,32.07
2023-05-08T04:11:59.915Z,32.08
2023-05-08T04:13:00.002Z,32.07
2023-05-08T04:13:59.975Z,32.07
2023-05-08T04:15:00.043Z,32.08
2023-05-08T04:16:00.114Z,32.08
2023-05-08T04:17:00.201Z,32.10
2023-05-08T04:18:00.228Z,32.09
2023-05-08T04:19:00.166Z,32.11
2023-05-08T04:20:00.225Z,32.10
2023-05-08T04:21:00.280Z,32.10
2023-05-08T04:22:00.288Z,32.11
2023-05-08T04:23:00.351Z,32.12
2023-05-08T04:24:00.352Z,32.11
2023-05-08T04:25:00.418Z,32.13
2023-05-08T04:26:00.417Z,32.14
2023-05-08T04:27:00.479Z,32.14
2023-05-08T04:28:00.537Z,32.14
2023-05-08T04:29:00.591Z,32.14
2023-05-08T04:30:00.613Z,32.13
2023-05-08T04:31:00.656Z,32.13
2023-05-08T04:32:00.715Z,32.15
2023-05-08T04:33:00.875Z,32.13
2023-05-08T04:34:00.804Z,32.15
2023-05-08T04:35:00.840Z,32.14
2023-05-08T04:36:00.865Z,32.16
2023-05-08T04:37:00.917Z,32.17
2023-05-08T04:38:00.968Z,32.18
2023-05-08T04:39:00.972Z,32.19
2023-05-08T04:40:01.031Z,32.19
2023-05-08T04:41:01.099Z,32.20
2023-05-08T04:42:01.110Z,32.22
2023-05-08T04:43:01.162Z,32.22
2023-05-08T04:44:01.202Z,32.21
2023-05-08T04:45:01.284Z,32.21
2023-05-08T04:46:01.287Z,32.22
2023-05-08T04:47:01.343Z,32.20
2023-05-08T04:48:01.610Z,32.23
2023-05-08T04:49:01.461Z,32.21
2023-05-08T04:50:02.852Z,32.21
2023-05-08T04:51:01.515Z,32.22
2023-05-08T04:52:01.572Z,32.20
2023-05-08T04:53:01.651Z,32.22
2023-05-08T04:54:01.660Z,32.24
2023-05-08T04:55:01.711Z,32.23
2023-05-08T04:56:01.760Z,32.21
2023-05-08T04:57:01.816Z,32.20
2023-05-08T04:58:01.832Z,32.23
2023-05-08T04:59:01.883Z,32.25
2023-05-08T05:00:02.035Z,32.25
2023-05-08T05:01:02.001Z,32.25
2023-05-08T05:02:02.113Z,32.25
2023-05-08T05:03:02.177Z,32.25
2023-05-08T05:04:02.214Z,32.25
2023-05-08T05:05:02.174Z,32.27
2023-05-08T05:06:02.241Z,32.26
2023-05-08T05:07:02.306Z,32.27
2023-05-08T05:08:02.349Z,32.26
2023-05-08T05:09:02.407Z,32.28
2023-05-08T05:10:02.478Z,32.28
2023-05-08T05:11:02.480Z,32.29
2023-05-08T05:12:02.528Z,32.29
2023-05-08T05:13:02.621Z,32.30
2023-05-08T05:14:02.646Z,32.28
2023-05-08T05:15:02.699Z,32.29
2023-05-08T05:16:02.820Z,32.30
2023-05-08T05:17:02.855Z,32.31
2023-05-08T05:18:02.862Z,32.33
2023-05-08T05:19:02.882Z,32.32
2023-05-08T05:20:02.998Z,32.31
2023-05-08T05:21:03.056Z,32.33
2023-05-08T05:22:03.116Z,32.33
2023-05-08T05:23:03.158Z,32.32
2023-05-08T05:24:03.176Z,32.34
2023-05-08T05:25:03.387Z,32.34
2023-05-08T05:26:03.246Z,32.33
2023-05-08T05:27:03.335Z,32.32
2023-05-08T05:28:03.434Z,32.35
2023-05-08T05:29:03.486Z,32.34
2023-05-08T05:30:03.525Z,32.37
2023-05-08T05:31:03.588Z,32.36
2023-05-08T05:32:03.640Z,32.45
2023-05-08T05:33:03.686Z,32.85
2023-05-08T05:34:03.707Z,33.70
2023-05-08T05:35:03.715Z,35.49
2023-05-08T05:36:03.707Z,35.77
2023-05-08T05:37:03.778Z,36.03
2023-05-08T05:38:03.851Z,36.54
2023-05-08T05:39:03.893Z,37.03
2023-05-08T05:40:03.899Z,37.53
2023-05-08T05:41:04.004Z,37.45
2023-05-08T05:42:04.066Z,37.91
2023-05-08T05:43:04.136Z,38.49
2023-05-08T05:44:04.176Z,38.20
2023-05-08T05:45:04.295Z,38.34
2023-05-08T05:46:04.554Z,38.43
2023-05-08T05:47:04.895Z,38.24
2023-05-08T05:48:05.010Z,38.18
2023-05-08T05:49:04.996Z,38.30
2023-05-08T05:50:04.991Z,38.27
2023-05-08T05:51:05.050Z,38.26
2023-05-08T05:52:05.118Z,38.38
2023-05-08T05:53:05.161Z,38.30
2023-05-08T05:54:05.113Z,38.25
2023-05-08T05:55:05.118Z,38.31
2023-05-08T05:56:05.120Z,38.18
2023-05-08T05:57:05.200Z,38.31
2023-05-08T05:58:05.187Z,38.18
2023-05-08T05:59:05.294Z,38.27
2023-05-08T06:00:05.255Z,38.08
2023-05-08T06:01:05.272Z,37.93
2023-05-08T06:02:05.369Z,37.75
2023-05-08T06:03:06.090Z,37.18
2023-05-08T06:04:05.483Z,36.99
2023-05-08T06:05:05.296Z,37.27
2023-05-08T06:06:05.307Z,37.52
2023-05-08T06:07:05.324Z,37.70
2023-05-08T06:08:05.307Z,37.51
2023-05-08T06:09:05.319Z,37.51
2023-05-08T06:10:05.343Z,37.39
2023-05-08T06:11:05.324Z,37.06
2023-05-08T06:12:05.336Z,36.94
2023-05-08T06:13:05.448Z,36.76
2023-05-08T06:14:05.376Z,36.83
2023-05-08T06:15:05.320Z,36.81
2023-05-08T06:16:05.319Z,36.60
2023-05-08T06:17:05.383Z,36.51
2023-05-08T06:18:05.363Z,36.46
2023-05-08T06:19:05.349Z,36.52
2023-05-08T06:20:05.619Z,36.59
2023-05-08T06:21:05.318Z,36.56
2023-05-08T06:22:05.365Z,36.57
2023-05-08T06:23:05.307Z,36.51
2023-05-08T06:24:05.383Z,36.45
2023-05-08T06:25:05.326Z,36.34
2023-05-08T06:26:05.348Z,36.31
2023-05-08T06:27:05.341Z,36.43
2023-05-08T06:28:05.404Z,36.46
2023-05-08T06:29:05.411Z,36.97
2023-05-08T06:30:05.571Z,36.36
2023-05-08T06:31:05.616Z,36.15
2023-05-08T06:32:05.529Z,36.48
2023-05-08T06:33:05.554Z,36.48
2023-05-08T06:34:05.550Z,36.40
2023-05-08T06:35:05.617Z,36.10
2023-05-08T06:36:05.702Z,36.15
2023-05-08T06:37:05.711Z,36.14
2023-05-08T06:38:05.819Z,36.19
2023-05-08T06:39:05.898Z,36.51
2023-05-08T06:40:12.140Z,36.55
2023-05-08T06:41:06.901Z,36.49
2023-05-08T06:42:06.113Z,36.46
2023-05-08T06:43:05.863Z,36.56
2023-05-08T06:44:06.587Z,36.64
2023-05-08T06:45:05.896Z,36.65
2023-05-08T06:46:05.855Z,36.72
2023-05-08T06:47:05.997Z,36.72
2023-05-08T06:48:05.905Z,36.71
2023-05-08T06:49:05.851Z,36.67
2023-05-08T06:50:05.810Z,36.71
2023-05-08T06:51:05.826Z,36.73
2023-05-08T06:52:06.842Z,36.79
2023-05-08T06:53:05.928Z,37.07
2023-05-08T06:54:05.782Z,37.33
2023-05-08T06:55:05.791Z,37.40
2023-05-08T06:56:05.846Z,37.14
2023-05-08T06:57:05.750Z,37.24
2023-05-08T06:58:06.578Z,37.53
2023-05-08T06:59:08.782Z,37.96
2023-05-08T07:00:05.841Z,37.85
2023-05-08T07:01:05.764Z,38.01
2023-05-08T07:02:05.842Z,37.85
2023-05-08T07:03:05.850Z,38.19
2023-05-08T07:04:05.777Z,37.69
2023-05-08T07:05:05.909Z,37.67
2023-05-08T07:06:05.786Z,37.63
2023-05-08T07:07:05.754Z,37.68
2023-05-08T07:08:05.847Z,37.33
2023-05-08T07:09:05.737Z,36.96
2023-05-08T07:10:07.235Z,36.92
2023-05-08T07:11:05.705Z,37.09
2023-05-08T07:12:05.806Z,37.21
2023-05-08T07:13:05.706Z,37.26
2023-05-08T07:14:05.703Z,37.53
2023-05-08T07:15:17.865Z,37.32
2023-05-08T07:16:06.788Z,37.17
2023-05-08T07:17:05.775Z,36.99
2023-05-08T07:18:05.965Z,37.23
2023-05-08T07:19:05.784Z,37.29
2023-05-08T07:20:06.024Z,37.14
2023-05-08T07:21:05.719Z,37.34
2023-05-08T07:22:05.993Z,37.88
2023-05-08T07:23:05.666Z,37.38
2023-05-08T07:24:05.694Z,37.37
2023-05-08T07:25:05.744Z,37.51
2023-05-08T07:26:05.808Z,37.74
2023-05-08T07:27:05.869Z,37.73
2023-05-08T07:28:05.911Z,37.74
2023-05-08T07:29:05.987Z,37.50
2023-05-08T07:30:06.091Z,37.65
2023-05-08T07:31:06.249Z,37.88
2023-05-08T07:32:06.244Z,37.95
2023-05-08T07:33:06.271Z,37.84
2023-05-08T07:34:06.240Z,37.86
2023-05-08T07:35:07.744Z,37.71
2023-05-08T07:36:06.283Z,37.79
2023-05-08T07:37:06.243Z,37.68
2023-05-08T07:38:06.241Z,37.67
2023-05-08T07:39:06.214Z,37.64
2023-05-08T07:40:06.222Z,37.65
2023-05-08T07:41:06.189Z,37.67
2023-05-08T07:42:06.162Z,37.69
2023-05-08T07:43:06.274Z,37.62
2023-05-08T07:44:06.172Z,37.61
2023-05-08T07:45:06.190Z,37.56
2023-05-08T07:46:06.138Z,37.59
2023-05-08T07:47:06.269Z,37.59
2023-05-08T07:48:06.165Z,37.70
2023-05-08T07:49:06.120Z,37.68
2023-05-08T07:50:06.120Z,37.67
2023-05-08T07:51:06.131Z,37.60
2023-05-08T07:52:06.141Z,37.57
2023-05-08T07:53:06.125Z,37.65
2023-05-08T07:54:06.119Z,37.59
2023-05-08T07:55:06.065Z,37.80
2023-05-08T07:56:06.107Z,37.72
2023-05-08T07:57:06.129Z,37.70
2023-05-08T07:58:06.060Z,37.74
2023-05-08T07:59:06.070Z,37.84
2023-05-08T08:00:06.074Z,37.92
2023-05-08T08:01:06.088Z,37.95
2023-05-08T08:02:06.114Z,38.05
2023-05-08T08:03:06.068Z,38.21
2023-05-08T08:04:06.212Z,38.11
2023-05-08T08:05:06.008Z,38.08
2023-05-08T08:06:06.016Z,38.09
2023-05-08T08:07:06.116Z,38.18
2023-05-08T08:08:06.071Z,38.21
2023-05-08T08:09:06.051Z,38.24
2023-05-08T08:10:05.973Z,38.25
2023-05-08T08:11:06.048Z,38.20
2023-05-08T08:12:06.010Z,38.24
2023-05-08T08:13:05.995Z,38.28
2023-05-08T08:14:06.071Z,38.31
2023-05-08T08:15:06.073Z,38.31
2023-05-08T08:16:06.074Z,38.24
2023-05-08T08:17:06.150Z,38.36
2023-05-08T08:18:06.150Z,38.29
2023-05-08T08:19:07.164Z,38.33
2023-05-08T08:20:06.222Z,38.35
2023-05-08T08:21:06.301Z,38.36
2023-05-08T08:22:06.262Z,38.42
2023-05-08T08:23:06.439Z,38.51
2023-05-08T08:24:06.402Z,38.53
2023-05-08T08:25:06.305Z,38.57
2023-05-08T08:26:06.459Z,38.50
2023-05-08T08:27:06.401Z,38.49
2023-05-08T08:28:06.403Z,38.41
2023-05-08T08:29:06.400Z,38.38
2023-05-08T08:30:16.877Z,38.27
2023-05-08T08:31:07.577Z,37.91
2023-05-08T08:32:06.453Z,37.76
2023-05-08T08:33:06.503Z,37.64
2023-05-08T08:34:06.438Z,37.64
2023-05-08T08:35:06.489Z,37.54
2023-05-08T08:36:06.437Z,37.60
2023-05-08T08:37:06.422Z,37.95
2023-05-08T08:38:06.458Z,38.07
2023-05-08T08:39:06.912Z,38.37
2023-05-08T08:40:06.385Z,38.47
2023-05-08T08:41:06.418Z,38.61
2023-05-08T08:42:06.430Z,39.29
2023-05-08T08:43:06.482Z,39.16
2023-05-08T08:44:06.426Z,39.02
2023-05-08T08:45:06.355Z,39.49
2023-05-08T08:46:06.454Z,39.40
2023-05-08T08:47:06.535Z,39.90
2023-05-08T08:48:06.544Z,39.64
2023-05-08T08:49:06.556Z,39.44
2023-05-08T08:50:07.140Z,39.98
2023-05-08T08:51:06.752Z,40.02
2023-05-08T08:52:06.673Z,39.94
2023-05-08T08:53:06.686Z,39.72
2023-05-08T08:54:14.688Z,39.64
2023-05-08T08:55:06.864Z,39.61
2023-05-08T08:56:06.693Z,39.54
2023-05-08T08:57:06.702Z,39.42
2023-05-08T08:58:06.682Z,39.41
2023-05-08T08:59:06.776Z,39.45
2023-05-08T09:00:07.020Z,39.75
2023-05-08T09:01:06.638Z,39.53
2023-05-08T09:02:06.687Z,39.25
2023-05-08T09:03:06.700Z,39.18
2023-05-08T09:04:06.725Z,39.15
2023-05-08T09:05:07.777Z,39.22
2023-05-08T09:06:06.772Z,39.64
2023-05-08T09:07:06.799Z,39.65
2023-05-08T09:08:06.975Z,39.96
2023-05-08T09:09:06.927Z,39.30
2023-05-08T09:10:07.017Z,39.38
2023-05-08T09:11:07.006Z,39.38
2023-05-08T09:12:07.640Z,39.53
2023-05-08T09:13:07.232Z,39.76
2023-05-08T09:14:07.123Z,39.58
2023-05-08T09:15:07.201Z,39.74
2023-05-08T09:16:07.219Z,39.58
2023-05-08T09:17:07.270Z,39.48
2023-05-08T09:18:07.452Z,39.42
2023-05-08T09:19:07.332Z,39.50
2023-05-08T09:20:07.396Z,39.45
2023-05-08T09:21:07.379Z,39.13
2023-05-08T09:22:07.665Z,39.23
2023-05-08T09:23:07.640Z,39.11
2023-05-08T09:24:07.609Z,39.20
2023-05-08T09:25:07.591Z,39.42
2023-05-08T09:26:07.655Z,39.48
2023-05-08T09:27:07.700Z,39.53
2023-05-08T09:28:07.611Z,39.40
2023-05-08T09:29:07.729Z,39.77
2023-05-08T09:30:07.698Z,39.62
2023-05-08T09:31:07.639Z,39.64
2023-05-08T09:32:07.734Z,39.79
2023-05-08T09:33:07.846Z,39.42
2023-05-08T09:34:07.744Z,39.66
2023-05-08T09:35:07.757Z,39.45
2023-05-08T09:36:07.686Z,39.33
2023-05-08T09:37:07.787Z,39.03
2023-05-08T09:38:07.810Z,39.03
2023-05-08T09:39:07.887Z,39.03
2023-05-08T09:40:08.197Z,39.11
2023-05-08T09:41:07.898Z,39.06
2023-05-08T09:42:09.067Z,38.94
2023-05-08T09:43:08.052Z,38.42
2023-05-08T09:44:08.021Z,38.18
2023-05-08T09:45:07.946Z,38.92
2023-05-08T09:46:07.962Z,38.92
2023-05-08T09:47:11.119Z,38.66
2023-05-08T09:48:08.109Z,37.99
2023-05-08T09:49:08.832Z,38.18
2023-05-08T09:50:08.194Z,38.04
2023-05-08T09:51:08.161Z,38.58
2023-05-08T09:52:07.985Z,38.57
2023-05-08T09:53:07.903Z,38.76
2023-05-08T09:54:08.018Z,38.98
2023-05-08T09:55:07.884Z,39.37
2023-05-08T09:56:08.136Z,39.29
2023-05-08T09:57:07.949Z,39.31
2023-05-08T09:58:07.934Z,39.33
2023-05-08T09:59:07.910Z,39.28
2023-05-08T10:00:07.845Z,39.31
2023-05-08T10:01:07.933Z,39.29
2023-05-08T10:02:07.832Z,38.84
2023-05-08T10:03:07.932Z,39.08
2023-05-08T10:04:07.906Z,39.48
2023-05-08T10:05:07.965Z,39.73
2023-05-08T10:06:08.167Z,39.50
2023-05-08T10:07:07.878Z,39.42
2023-05-08T10:08:07.821Z,39.57
2023-05-08T10:09:07.817Z,39.69
2023-05-08T10:10:07.937Z,39.65
2023-05-08T10:11:07.855Z,39.67
2023-05-08T10:12:07.912Z,39.85
2023-05-08T10:13:07.867Z,40.14
2023-05-08T10:14:07.866Z,40.14
2023-05-08T10:15:07.747Z,40.25
2023-05-08T10:16:07.770Z,40.09
2023-05-08T10:17:07.801Z,40.11
2023-05-08T10:18:07.823Z,40.09
2023-05-08T10:19:07.763Z,40.13
2023-05-08T10:20:07.801Z,40.16
2023-05-08T10:21:07.760Z,40.17
2023-05-08T10:22:07.715Z,40.18
2023-05-08T10:23:07.702Z,40.19
2023-05-08T10:24:07.717Z,40.06
2023-05-08T10:25:08.700Z,39.99
2023-05-08T10:26:07.724Z,39.52
2023-05-08T10:27:08.048Z,38.76
2023-05-08T10:28:08.723Z,38.70
2023-05-08T10:29:07.726Z,38.43
2023-05-08T10:30:07.732Z,38.52
2023-05-08T10:31:07.773Z,38.94
2023-05-08T10:32:07.734Z,38.96
2023-05-08T10:33:07.834Z,38.96
2023-05-08T10:34:07.685Z,39.24
2023-05-08T10:35:07.677Z,39.33
2023-05-08T10:36:07.749Z,39.37
2023-05-08T10:37:07.703Z,39.40
2023-05-08T10:38:07.787Z,39.54
2023-05-08T10:39:07.788Z,39.52
2023-05-08T10:40:07.942Z,39.61
2023-05-08T10:41:08.674Z,39.64
2023-05-08T10:42:08.013Z,39.64
2023-05-08T10:43:07.952Z,39.72
2023-05-08T10:44:08.140Z,39.80
2023-05-08T10:45:08.175Z,39.92
2023-05-08T10:46:08.247Z,40.18
2023-05-08T10:47:08.266Z,40.06
2023-05-08T10:48:08.526Z,40.01
2023-05-08T10:49:08.590Z,40.11
2023-05-08T10:50:08.573Z,40.14
2023-05-08T10:51:08.620Z,40.23
2023-05-08T10:52:08.695Z,40.15
2023-05-08T10:53:08.702Z,40.19
2023-05-08T10:54:08.811Z,40.28
2023-05-08T10:55:08.810Z,40.26
2023-05-08T10:56:08.776Z,40.34
2023-05-08T10:57:08.838Z,40.42
2023-05-08T10:58:08.871Z,40.40
2023-05-08T10:59:09.081Z,40.33
2023-05-08T11:00:08.955Z,40.09
2023-05-08T11:01:09.098Z,40.22
2023-05-08T11:02:09.072Z,40.38
2023-05-08T11:03:19.969Z,40.38
2023-05-08T11:04:10.169Z,40.45
2023-05-08T11:05:08.985Z,40.48
2023-05-08T11:06:09.113Z,40.44
2023-05-08T11:07:08.922Z,40.48
2023-05-08T11:08:09.236Z,40.53
2023-05-08T11:09:09.056Z,40.57
2023-05-08T11:10:08.972Z,40.60
2023-05-08T11:11:08.924Z,40.57
2023-05-08T11:12:08.963Z,40.60
2023-05-08T11:13:08.916Z,40.86
2023-05-08T11:14:08.979Z,40.74
2023-05-08T11:15:08.876Z,40.77
2023-05-08T11:16:08.918Z,40.78
2023-05-08T11:17:08.911Z,40.85
2023-05-08T11:18:09.052Z,40.94
2023-05-08T11:19:08.885Z,40.89
2023-05-08T11:20:08.906Z,41.02
2023-05-08T11:21:08.860Z,40.96
2023-05-08T11:22:08.882Z,41.23
2023-05-08T11:23:09.243Z,41.07
2023-05-08T11:24:09.223Z,41.12
2023-05-08T11:25:08.901Z,40.45
2023-05-08T11:26:08.873Z,39.53
2023-05-08T11:27:08.922Z,38.76
2023-05-08T11:28:08.933Z,38.75
2023-05-08T11:29:09.088Z,38.29
2023-05-08T11:30:09.059Z,38.02
2023-05-08T11:31:09.166Z,37.97
2023-05-08T11:32:09.206Z,37.77
2023-05-08T11:33:09.250Z,37.71
2023-05-08T11:34:09.281Z,37.62
2023-05-08T11:35:09.301Z,37.39
2023-05-08T11:36:09.294Z,37.40
2023-05-08T11:37:09.316Z,37.37
2023-05-08T11:38:09.301Z,37.21
2023-05-08T11:39:09.330Z,37.27
2023-05-08T11:40:09.356Z,37.40
2023-05-08T11:41:09.378Z,37.19
2023-05-08T11:42:09.495Z,37.10
2023-05-08T11:43:09.551Z,37.35
2023-05-08T11:44:09.653Z,37.47
2023-05-08T11:45:09.662Z,37.58
2023-05-08T11:46:09.588Z,37.60
2023-05-08T11:47:09.699Z,37.52
2023-05-08T11:48:09.785Z,37.54
2023-05-08T11:49:10.239Z,37.48
2023-05-08T11:50:09.835Z,37.60
2023-05-08T11:51:09.863Z,37.50
2023-05-08T11:52:09.911Z,37.43
2023-05-08T11:53:09.916Z,37.45
2023-05-08T11:54:09.964Z,37.35
2023-05-08T11:55:10.104Z,37.15
2023-05-08T11:56:10.096Z,37.20
2023-05-08T11:57:10.157Z,37.28
2023-05-08T11:58:10.172Z,37.02
2023-05-08T11:59:10.223Z,37.04
2023-05-08T12:00:10.284Z,37.31
2023-05-08T12:01:10.377Z,37.32
2023-05-08T12:02:10.442Z,37.21
2023-05-08T12:03:10.566Z,37.23
2023-05-08T12:04:10.797Z,36.83
2023-05-08T12:05:10.735Z,36.92
2023-05-08T12:06:10.587Z,36.92
2023-05-08T12:07:10.636Z,36.89
2023-05-08T12:08:10.746Z,36.91
2023-05-08T12:09:10.747Z,36.85
2023-05-08T12:10:11.004Z,37.04
2023-05-08T12:11:10.901Z,37.01
2023-05-08T12:12:10.927Z,37.04
2023-05-08T12:13:11.111Z,37.19
2023-05-08T12:14:11.089Z,37.30
2023-05-08T12:15:11.119Z,37.36
2023-05-08T12:16:11.255Z,37.41
2023-05-08T12:17:11.389Z,37.28
2023-05-08T12:18:11.362Z,37.10
2023-05-08T12:19:11.378Z,37.38
2023-05-08T12:20:11.624Z,37.55
2023-05-08T12:21:11.505Z,37.68
2023-05-08T12:22:11.552Z,37.70
2023-05-08T12:23:11.638Z,37.70
2023-05-08T12:24:11.668Z,37.43
2023-05-08T12:25:13.083Z,37.32
2023-05-08T12:26:11.782Z,37.18
2023-05-08T12:27:11.836Z,37.19
2023-05-08T12:28:11.922Z,37.12
2023-05-08T12:29:11.958Z,37.14
2023-05-08T12:30:12.275Z,37.26
2023-05-08T12:31:12.155Z,37.36
2023-05-08T12:32:12.134Z,37.17
2023-05-08T12:33:12.179Z,37.26
2023-05-08T12:34:12.090Z,37.21
2023-05-08T12:35:12.204Z,37.23
2023-05-08T12:36:12.176Z,37.27
2023-05-08T12:37:12.223Z,37.16
2023-05-08T12:38:13.023Z,37.19
2023-05-08T12:39:12.291Z,37.10
2023-05-08T12:40:12.713Z,37.07
2023-05-08T12:41:12.402Z,37.06
2023-05-08T12:42:12.452Z,36.91
2023-05-08T12:43:12.561Z,36.87
2023-05-08T12:44:12.663Z,36.85
2023-05-08T12:45:12.662Z,36.79
2023-05-08T12:46:12.773Z,36.73
2023-05-08T12:47:12.791Z,36.73
2023-05-08T12:48:13.053Z,36.75
2023-05-08T12:49:13.046Z,36.48
2023-05-08T12:50:13.031Z,36.40
2023-05-08T12:51:12.974Z,36.36
2023-05-08T12:52:13.019Z,36.25
2023-05-08T12:53:13.116Z,36.17